Alpena County Regional Airport Alpena US
ICAO: KAPN
IATA: APN
Category: Medium
Scheduled Services: Yes

Elevation: 690 ft
TransAlt. 18000 ft.

Airport Communications:
APP/DEP:128.425
ASOS:120.675
CTAF:121.35
GND:121.9
PTD:37.22
LANSING RDO:108.8
TWR:121.35
UNICOM:122.95

KAPN Zoom In..

Runways:

(A) RW 01 length 9001 ft width 150 ft
ILS 109.70 / hdg 7

(B) RW 07 length 5028 ft width 100 ft
---- / hdg 67

(C) RW 19 length 9001 ft width 150 ft
---- / hdg 187

(D) RW 25 length 5028 ft width 100 ft
---- / hdg 247

Location; KAPN
Day. 23 / Time. 03.54 Zulu
* Altimeter: 29.90
* Temperature: 19° c. 66.2°f.
* Wind from: 040° Speed 08 kn.
Dewpoint: 19° c.
Visibility: 3 Statute Miles.
Clouds: Overcast 600 ft.
Conditions: Light Rain.Conditions: Mist.

KAPN 230354Z AUTO 04008KT 3SM -RA BR OVC006 19/19 A2990 RMK AO2 CIG 004V008 SLP123 P0005 T01890189


Wind From 040°
Speed 08 kn.

 
 
jpsmedia.com for Web Design worldairports.se 2018   terms of use